createdAt,value
2018-12-27T00:00:46.276Z,65.99
2018-12-27T00:03:13.774Z,65.35
2018-12-27T00:05:41.275Z,65.26
2018-12-27T00:08:08.838Z,65.80
2018-12-27T00:10:36.323Z,65.10
2018-12-27T00:13:03.762Z,65.04
2018-12-27T00:18:05.122Z,64.45
2018-12-27T00:20:32.578Z,63.38
2018-12-27T00:23:00.065Z,62.83
2018-12-27T00:25:27.512Z,63.60
2018-12-27T00:27:54.974Z,62.83
2018-12-27T00:30:22.444Z,63.93
2018-12-27T00:32:50.223Z,64.55
2018-12-27T00:35:17.671Z,64.19
2018-12-27T00:37:45.123Z,65.87
2018-12-27T00:40:12.559Z,65.52
2018-12-27T00:42:40.955Z,64.45
2018-12-27T00:45:08.490Z,64.39
2018-12-27T00:47:35.950Z,63.38
2018-12-27T00:50:03.388Z,62.75
2018-12-27T00:52:30.830Z,62.20
2018-12-27T00:54:58.309Z,62.87
2018-12-27T00:57:25.797Z,62.67
2018-12-27T00:59:53.247Z,62.91
2018-12-27T01:02:20.772Z,62.40
2018-12-27T01:04:49.120Z,62.38
2018-12-27T01:07:16.576Z,61.82
2018-12-27T01:09:44.040Z,62.00
2018-12-27T01:12:11.477Z,62.67
2018-12-27T01:14:38.912Z,62.15
2018-12-27T01:17:06.407Z,61.73
2018-12-27T01:19:34.009Z,62.26
2018-12-27T01:22:01.531Z,61.06
2018-12-27T01:24:29.170Z,63.43
2018-12-27T01:26:57.414Z,63.31
2018-12-27T01:29:25.088Z,61.16
2018-12-27T01:31:52.604Z,63.58
2018-12-27T01:34:20.082Z,63.33
2018-12-27T01:36:47.511Z,63.17
2018-12-27T01:39:15.762Z,62.63
2018-12-27T01:41:43.263Z,62.89
2018-12-27T01:44:10.713Z,63.03
2018-12-27T01:46:38.166Z,63.25
2018-12-27T01:49:05.658Z,63.08
2018-12-27T01:51:33.123Z,63.31
2018-12-27T01:54:00.568Z,63.13
2018-12-27T01:56:28.246Z,62.88
2018-12-27T01:58:55.767Z,63.12
2018-12-27T02:01:24.494Z,62.42
2018-12-27T02:03:52.966Z,61.13
2018-12-27T02:06:20.495Z,60.50
2018-12-27T02:08:48.227Z,61.63
2018-12-27T02:11:15.911Z,61.15
2018-12-27T02:13:43.405Z,61.68
2018-12-27T02:16:10.967Z,62.18
2018-12-27T02:18:38.460Z,62.21
2018-12-27T02:21:05.879Z,63.29
2018-12-27T02:23:33.487Z,61.17
2018-12-27T02:26:01.256Z,61.07
2018-12-27T02:28:28.771Z,60.57
2018-12-27T02:30:56.320Z,61.00
2018-12-27T02:33:23.768Z,60.83
2018-12-27T02:35:51.212Z,61.14
2018-12-27T02:38:18.823Z,60.97
2018-12-27T02:40:46.345Z,61.08
2018-12-27T02:43:13.783Z,61.61
2018-12-27T02:45:41.477Z,61.56
2018-12-27T02:48:10.060Z,61.46
2018-12-27T02:50:37.902Z,61.75
2018-12-27T02:53:05.335Z,61.60
2018-12-27T02:55:32.759Z,61.16
2018-12-27T02:58:00.219Z,61.49
2018-12-27T03:00:28.594Z,60.51
2018-12-27T03:02:56.166Z,61.16
2018-12-27T03:05:23.602Z,61.23
2018-12-27T03:07:51.021Z,62.23
2018-12-27T03:10:18.475Z,62.44
2018-12-27T03:12:45.886Z,62.04
2018-12-27T03:15:13.340Z,61.10
2018-12-27T03:17:40.864Z,61.97
2018-12-27T03:20:08.301Z,61.62
2018-12-27T03:22:35.752Z,61.78
2018-12-27T03:25:03.230Z,61.97
2018-12-27T03:27:30.694Z,61.58
2018-12-27T03:29:58.154Z,62.29
2018-12-27T03:32:25.614Z,62.25
2018-12-27T03:34:53.043Z,61.79
2018-12-27T03:37:21.409Z,61.66
2018-12-27T03:39:48.915Z,62.49
2018-12-27T03:42:16.382Z,61.12
2018-12-27T03:44:43.836Z,61.42
2018-12-27T03:47:11.281Z,61.46
2018-12-27T03:49:38.699Z,61.21
2018-12-27T03:52:06.149Z,61.10
2018-12-27T03:54:33.585Z,61.44
2018-12-27T03:57:01.067Z,61.26
2018-12-27T03:59:28.529Z,61.35
2018-12-27T04:01:56.026Z,62.13
2018-12-27T04:04:23.479Z,60.93
2018-12-27T04:06:50.929Z,60.16
2018-12-27T04:09:18.385Z,61.23
2018-12-27T04:11:46.308Z,61.96
2018-12-27T04:14:13.764Z,62.41
2018-12-27T04:16:41.208Z,62.20
2018-12-27T04:19:08.691Z,60.69
2018-12-27T04:21:36.132Z,61.49
2018-12-27T04:24:03.591Z,61.29
2018-12-27T04:26:31.045Z,61.44
2018-12-27T04:28:58.491Z,61.96
2018-12-27T04:31:25.964Z,62.49
2018-12-27T04:33:53.422Z,62.45
2018-12-27T04:36:20.875Z,62.33
2018-12-27T04:38:48.318Z,62.22
2018-12-27T04:41:15.780Z,61.76
2018-12-27T04:43:43.238Z,62.10
2018-12-27T04:46:10.709Z,61.72
2018-12-27T04:48:38.184Z,61.77
2018-12-27T04:51:05.640Z,62.09
2018-12-27T04:53:33.071Z,61.85
2018-12-27T04:56:00.587Z,61.79
2018-12-27T04:58:28.838Z,60.95
2018-12-27T05:00:56.397Z,61.40
2018-12-27T05:03:23.867Z,60.52
2018-12-27T05:05:51.326Z,60.44
2018-12-27T05:08:18.792Z,61.52
2018-12-27T05:10:46.254Z,61.27
2018-12-27T05:13:13.732Z,60.47
2018-12-27T05:15:41.204Z,60.89
2018-12-27T05:18:09.353Z,60.70
2018-12-27T05:20:37.729Z,60.67
2018-12-27T05:23:05.260Z,61.01
2018-12-27T05:25:32.695Z,61.13
2018-12-27T05:28:00.155Z,61.23
2018-12-27T05:30:27.606Z,61.29
2018-12-27T05:32:55.143Z,62.78
2018-12-27T05:35:22.571Z,61.99
2018-12-27T05:37:50.023Z,61.57
2018-12-27T05:40:17.464Z,61.18
2018-12-27T05:42:44.976Z,61.12
2018-12-27T05:45:12.531Z,60.80
2018-12-27T05:47:39.980Z,60.20
2018-12-27T05:50:07.436Z,59.10
2018-12-27T05:52:34.878Z,59.66
2018-12-27T05:55:02.345Z,59.24
2018-12-27T05:57:29.783Z,59.63
2018-12-27T05:59:57.219Z,58.40
2018-12-27T06:02:24.652Z,59.40
2018-12-27T06:04:52.166Z,59.18
2018-12-27T06:07:19.602Z,60.04
2018-12-27T06:09:47.047Z,59.70
2018-12-27T06:12:14.478Z,58.62
2018-12-27T06:14:41.920Z,57.76
2018-12-27T06:17:11.581Z,58.90
2018-12-27T06:19:39.017Z,59.72
2018-12-27T06:22:06.485Z,60.06
2018-12-27T06:24:33.914Z,59.63
2018-12-27T06:27:01.395Z,59.28
2018-12-27T06:29:28.825Z,60.24
2018-12-27T06:31:57.202Z,60.27
2018-12-27T06:34:24.674Z,59.75
2018-12-27T06:36:52.152Z,59.59
2018-12-27T06:39:19.593Z,59.90
2018-12-27T06:41:47.015Z,60.11
2018-12-27T06:44:14.465Z,59.38
2018-12-27T06:46:41.977Z,59.87
2018-12-27T06:49:09.432Z,59.09
2018-12-27T06:51:36.888Z,59.08
2018-12-27T06:54:04.348Z,59.75
2018-12-27T06:56:31.809Z,59.45
2018-12-27T06:58:59.272Z,59.25
2018-12-27T07:01:26.740Z,59.61
2018-12-27T07:03:54.159Z,59.12
2018-12-27T07:06:21.657Z,59.92
2018-12-27T07:08:49.215Z,59.93
2018-12-27T07:11:16.682Z,59.65
2018-12-27T07:13:44.932Z,59.58
2018-12-27T07:16:12.475Z,59.19
2018-12-27T07:18:39.933Z,58.94
2018-12-27T07:21:07.371Z,58.65
2018-12-27T07:23:34.825Z,59.61
2018-12-27T07:26:02.304Z,59.70
2018-12-27T07:28:29.782Z,59.38
2018-12-27T07:30:57.207Z,60.16
2018-12-27T07:33:24.656Z,59.38
2018-12-27T07:35:52.106Z,59.17
2018-12-27T07:38:19.542Z,59.85
2018-12-27T07:40:46.966Z,58.66
2018-12-27T07:43:14.431Z,58.96
2018-12-27T07:45:41.874Z,57.57
2018-12-27T07:48:09.316Z,57.22
2018-12-27T07:50:36.797Z,58.00
2018-12-27T07:53:04.265Z,57.96
2018-12-27T07:55:31.724Z,58.19
2018-12-27T07:57:59.205Z,57.55
2018-12-27T08:00:26.643Z,57.32
2018-12-27T08:02:54.085Z,57.44
2018-12-27T08:05:21.610Z,57.45
2018-12-27T08:07:49.061Z,55.80
2018-12-27T08:10:16.542Z,55.64
2018-12-27T08:12:44.000Z,56.67
2018-12-27T08:15:12.287Z,56.46
2018-12-27T08:17:39.829Z,56.69
2018-12-27T08:20:07.289Z,55.99
2018-12-27T08:22:34.738Z,55.55
2018-12-27T08:25:02.191Z,56.01
2018-12-27T08:27:29.632Z,56.97
2018-12-27T08:29:57.879Z,56.82
2018-12-27T08:32:25.341Z,56.52
2018-12-27T08:34:52.775Z,55.70
2018-12-27T08:37:20.278Z,56.23
2018-12-27T08:39:47.752Z,55.07
2018-12-27T08:42:15.278Z,55.29
2018-12-27T08:44:42.735Z,55.00
2018-12-27T08:47:10.193Z,54.21
2018-12-27T08:49:37.615Z,55.33
2018-12-27T08:52:06.136Z,56.23
2018-12-27T08:54:33.783Z,55.72
2018-12-27T08:57:01.250Z,54.98
2018-12-27T08:59:28.711Z,55.63
2018-12-27T09:01:56.143Z,55.08
2018-12-27T09:04:23.579Z,55.53
2018-12-27T09:06:50.994Z,55.99
2018-12-27T09:09:18.476Z,55.58
2018-12-27T09:11:45.937Z,55.87
2018-12-27T09:14:13.409Z,55.89
2018-12-27T09:16:40.861Z,55.34
2018-12-27T09:19:08.320Z,55.89
2018-12-27T09:21:35.787Z,55.57
2018-12-27T09:24:03.280Z,56.24
2018-12-27T09:26:30.743Z,54.51
2018-12-27T09:28:58.184Z,56.41
2018-12-27T09:31:25.610Z,56.53
2018-12-27T09:33:53.117Z,54.72
2018-12-27T09:36:20.570Z,54.99
2018-12-27T09:38:48.031Z,53.90
2018-12-27T09:41:15.486Z,55.59
2018-12-27T09:43:42.922Z,50.04
2018-12-27T09:46:10.540Z,54.61
2018-12-27T09:48:37.955Z,52.62
2018-12-27T09:51:05.519Z,50.76
2018-12-27T09:53:32.917Z,51.71
2018-12-27T09:56:00.363Z,52.26
2018-12-27T09:58:27.842Z,51.72
2018-12-27T10:00:55.282Z,52.64
2018-12-27T10:03:22.693Z,51.15
2018-12-27T10:05:50.131Z,49.33
2018-12-27T10:08:17.621Z,49.76
2018-12-27T10:10:45.096Z,49.91
2018-12-27T10:13:12.528Z,48.13
2018-12-27T10:15:40.002Z,49.64
2018-12-27T10:18:07.472Z,51.44
2018-12-27T10:20:34.919Z,50.75
2018-12-27T10:23:02.422Z,51.94
2018-12-27T10:25:29.869Z,52.24
2018-12-27T10:27:57.317Z,52.28
2018-12-27T10:30:24.781Z,52.27
2018-12-27T10:32:52.252Z,52.38
2018-12-27T10:35:19.667Z,51.37
2018-12-27T10:37:47.113Z,49.02
2018-12-27T10:40:14.606Z,49.66
2018-12-27T10:42:42.030Z,48.38
2018-12-27T10:45:09.531Z,49.08
2018-12-27T10:47:36.977Z,50.00
2018-12-27T10:50:05.517Z,49.89
2018-12-27T10:52:34.190Z,48.52
2018-12-27T10:55:01.682Z,49.03
2018-12-27T10:57:29.690Z,48.99
2018-12-27T10:59:57.140Z,50.29
2018-12-27T11:02:24.683Z,49.01
2018-12-27T11:04:53.261Z,48.33
2018-12-27T11:07:21.996Z,50.62
2018-12-27T11:09:50.105Z,50.72
2018-12-27T11:12:18.629Z,51.96
2018-12-27T11:14:46.120Z,52.00
2018-12-27T11:17:13.572Z,49.62
2018-12-27T11:19:41.056Z,50.91
2018-12-27T11:22:08.631Z,49.66
2018-12-27T11:24:36.055Z,50.87
2018-12-27T11:27:03.499Z,49.61
2018-12-27T11:29:30.974Z,50.41
2018-12-27T11:31:58.417Z,50.30
2018-12-27T11:34:25.879Z,49.33
2018-12-27T11:36:53.397Z,47.18
2018-12-27T11:39:20.809Z,45.46
2018-12-27T11:41:48.257Z,48.44
2018-12-27T11:44:15.686Z,46.88
2018-12-27T11:46:43.147Z,47.49
2018-12-27T11:49:10.598Z,45.61
2018-12-27T11:51:38.046Z,45.64
2018-12-27T11:54:05.463Z,45.52
2018-12-27T11:56:32.917Z,46.54
2018-12-27T11:59:00.343Z,44.42
2018-12-27T12:01:27.817Z,45.15
2018-12-27T12:03:55.282Z,48.10
2018-12-27T12:06:22.743Z,48.61
2018-12-27T12:08:50.188Z,47.31
2018-12-27T12:11:17.652Z,47.81
2018-12-27T12:13:45.129Z,48.64
2018-12-27T12:16:12.576Z,45.45
2018-12-27T12:18:40.054Z,47.05
2018-12-27T12:21:07.499Z,45.93
2018-12-27T12:23:34.982Z,46.91
2018-12-27T12:26:02.424Z,47.54
2018-12-27T12:28:29.863Z,49.28
2018-12-27T12:30:57.300Z,49.83
2018-12-27T12:33:24.735Z,48.83
2018-12-27T12:35:52.190Z,50.83
2018-12-27T12:38:21.160Z,50.90
2018-12-27T12:40:48.674Z,47.32
2018-12-27T12:43:16.112Z,45.84
2018-12-27T12:45:43.532Z,51.52
2018-12-27T12:48:10.981Z,49.40
2018-12-27T12:50:38.481Z,46.85
2018-12-27T12:53:05.940Z,45.71
2018-12-27T12:55:34.957Z,46.95
2018-12-27T12:58:02.367Z,46.96
2018-12-27T13:00:30.162Z,43.97
2018-12-27T13:02:57.639Z,46.54
2018-12-27T13:05:25.119Z,49.26
2018-12-27T13:07:52.527Z,46.85
2018-12-27T13:10:19.987Z,49.33
2018-12-27T13:12:47.428Z,46.43
2018-12-27T13:15:14.858Z,46.59
2018-12-27T13:17:42.284Z,46.57
2018-12-27T13:20:09.758Z,48.01
2018-12-27T13:22:37.220Z,46.07
2018-12-27T13:25:04.665Z,47.16
2018-12-27T13:27:32.119Z,48.28
2018-12-27T13:29:59.577Z,52.17
2018-12-27T13:32:27.024Z,51.25
2018-12-27T13:34:54.455Z,50.24
2018-12-27T13:37:21.865Z,51.60
2018-12-27T13:39:49.299Z,54.59
2018-12-27T13:42:16.737Z,52.08
2018-12-27T13:44:44.180Z,51.50
2018-12-27T13:47:11.609Z,52.36
2018-12-27T13:49:39.076Z,53.95
2018-12-27T13:52:06.495Z,54.11
2018-12-27T13:54:33.950Z,52.52
2018-12-27T13:57:01.639Z,51.45
2018-12-27T13:59:29.096Z,54.28
2018-12-27T14:01:56.545Z,53.88
2018-12-27T14:04:23.967Z,53.92
2018-12-27T14:06:51.439Z,54.05
2018-12-27T14:09:18.876Z,52.92
2018-12-27T14:11:46.315Z,50.95
2018-12-27T14:14:13.743Z,52.68
2018-12-27T14:16:41.190Z,52.36
2018-12-27T14:19:08.624Z,51.14
2018-12-27T14:21:36.093Z,52.81
2018-12-27T14:24:03.616Z,52.01
2018-12-27T14:26:31.086Z,54.62
2018-12-27T14:28:58.498Z,53.29
2018-12-27T14:31:25.941Z,52.89
2018-12-27T14:33:53.369Z,54.13
2018-12-27T14:36:20.852Z,53.90
2018-12-27T14:38:48.274Z,54.08
2018-12-27T14:41:15.708Z,53.74
2018-12-27T14:43:43.151Z,54.07
2018-12-27T14:46:10.668Z,54.05
2018-12-27T14:48:38.120Z,54.74
2018-12-27T14:51:05.575Z,55.00
2018-12-27T14:53:33.060Z,54.07
2018-12-27T14:56:00.509Z,53.58
2018-12-27T14:58:27.953Z,52.80
2018-12-27T15:00:55.373Z,54.71
2018-12-27T15:03:22.831Z,54.77
2018-12-27T15:05:50.297Z,54.16
2018-12-27T15:08:17.780Z,53.32
2018-12-27T15:10:45.236Z,55.02
2018-12-27T15:13:12.721Z,54.85
2018-12-27T15:15:40.173Z,55.45
2018-12-27T15:18:07.599Z,56.62
2018-12-27T15:20:35.036Z,56.24
2018-12-27T15:23:02.504Z,56.07
2018-12-27T15:25:29.967Z,56.28
2018-12-27T15:27:57.439Z,55.27
2018-12-27T15:30:25.752Z,55.88
2018-12-27T15:32:53.206Z,54.81
2018-12-27T15:35:20.624Z,55.35
2018-12-27T15:37:48.094Z,55.53
2018-12-27T15:40:15.554Z,54.99
2018-12-27T15:42:42.995Z,55.58
2018-12-27T15:45:10.431Z,56.39
2018-12-27T15:47:37.869Z,55.99
2018-12-27T15:50:05.297Z,55.29
2018-12-27T15:52:32.745Z,57.08
2018-12-27T15:55:00.154Z,56.28
2018-12-27T15:57:27.576Z,56.95
2018-12-27T15:59:55.090Z,56.34
2018-12-27T16:02:22.544Z,55.84
2018-12-27T16:04:49.978Z,56.36
2018-12-27T16:07:17.444Z,55.85
2018-12-27T16:09:44.882Z,55.79
2018-12-27T16:12:16.027Z,56.61
2018-12-27T16:14:44.557Z,56.76
2018-12-27T16:17:12.119Z,56.55
2018-12-27T16:19:39.634Z,56.84
2018-12-27T16:22:07.078Z,56.52
2018-12-27T16:24:34.527Z,57.35
2018-12-27T16:27:01.989Z,57.57
2018-12-27T16:29:29.434Z,57.08
2018-12-27T16:31:56.907Z,57.99
2018-12-27T16:34:24.642Z,58.44
2018-12-27T16:36:52.117Z,58.08
2018-12-27T16:39:19.559Z,58.23
2018-12-27T16:41:47.030Z,58.50
2018-12-27T16:44:14.478Z,58.80
2018-12-27T16:46:42.077Z,58.51
2018-12-27T16:49:09.535Z,57.79
2018-12-27T16:51:36.969Z,58.87
2018-12-27T16:54:04.427Z,58.18
2018-12-27T16:56:31.898Z,59.29
2018-12-27T16:58:59.354Z,59.83
2018-12-27T17:01:26.893Z,61.04
2018-12-27T17:03:54.383Z,61.84
2018-12-27T17:06:21.850Z,61.80
2018-12-27T17:08:49.530Z,61.30
2018-12-27T17:11:16.983Z,61.92
2018-12-27T17:13:44.429Z,61.43
2018-12-27T17:16:11.893Z,62.16
2018-12-27T17:18:39.359Z,60.94
2018-12-27T17:21:06.794Z,61.38
2018-12-27T17:23:34.271Z,60.63
2018-12-27T17:26:01.699Z,60.20
2018-12-27T17:28:29.137Z,60.17
2018-12-27T17:30:56.661Z,59.54
2018-12-27T17:33:24.111Z,59.33
2018-12-27T17:35:52.137Z,60.28
2018-12-27T17:38:19.599Z,61.77
2018-12-27T17:40:47.088Z,61.65
2018-12-27T17:43:14.529Z,61.22
2018-12-27T17:45:42.009Z,61.17
2018-12-27T17:48:09.464Z,61.10
2018-12-27T17:50:36.986Z,60.99
2018-12-27T17:53:04.448Z,62.09
2018-12-27T17:55:31.891Z,62.34
2018-12-27T17:57:59.350Z,62.58
2018-12-27T18:00:26.787Z,61.82
2018-12-27T18:02:54.285Z,63.71
2018-12-27T18:05:21.753Z,64.04
2018-12-27T18:07:49.222Z,64.62
2018-12-27T18:10:16.655Z,64.14
2018-12-27T18:12:44.122Z,64.87
2018-12-27T18:15:11.555Z,64.71
2018-12-27T18:17:39.008Z,65.33
2018-12-27T18:20:06.435Z,64.26
2018-12-27T18:22:33.922Z,64.35
2018-12-27T18:25:01.381Z,65.42
2018-12-27T18:27:28.843Z,65.47
2018-12-27T18:29:56.303Z,64.96
2018-12-27T18:32:23.758Z,64.83
2018-12-27T18:34:51.231Z,64.16
2018-12-27T18:37:18.715Z,64.12
2018-12-27T18:39:46.144Z,64.27
2018-12-27T18:42:13.628Z,64.33
2018-12-27T18:44:41.075Z,63.79
2018-12-27T18:47:08.528Z,63.78
2018-12-27T18:49:36.012Z,63.89
2018-12-27T18:52:03.437Z,63.83
2018-12-27T18:54:30.873Z,63.37
2018-12-27T18:56:58.338Z,63.55
2018-12-27T18:59:25.788Z,63.23
2018-12-27T19:01:53.272Z,62.89
2018-12-27T19:04:20.716Z,63.13
2018-12-27T19:06:49.076Z,63.09
2018-12-27T19:09:16.503Z,63.15
2018-12-27T19:12:10.447Z,62.99
2018-12-27T19:14:37.884Z,62.74
2018-12-27T19:17:06.225Z,62.64
2018-12-27T19:19:33.923Z,63.24
2018-12-27T19:22:01.373Z,63.00
2018-12-27T19:24:29.046Z,63.19
2018-12-27T19:26:56.619Z,63.75
2018-12-27T19:29:24.227Z,63.93
2018-12-27T19:31:51.699Z,64.55
2018-12-27T19:34:19.475Z,64.56
2018-12-27T19:39:45.144Z,66.60
2018-12-27T19:42:12.614Z,67.41
2018-12-27T19:44:40.031Z,67.48
2018-12-27T19:47:07.469Z,67.27
2018-12-27T19:49:34.925Z,67.53
2018-12-27T19:52:02.362Z,67.73
2018-12-27T19:54:32.019Z,68.51
2018-12-27T19:56:57.361Z,68.82
2018-12-27T19:59:24.829Z,68.65
2018-12-27T20:01:52.630Z,68.24
2018-12-27T20:04:20.159Z,68.54
2018-12-27T20:06:47.753Z,68.10
2018-12-27T20:09:15.235Z,67.90
2018-12-27T20:11:43.003Z,67.34
2018-12-27T20:14:10.494Z,67.64
2018-12-27T20:16:38.660Z,67.06
2018-12-27T20:19:06.130Z,67.25
2018-12-27T20:21:33.729Z,66.68
2018-12-27T20:24:01.283Z,65.95
2018-12-27T20:26:28.853Z,66.29
2018-12-27T20:28:56.292Z,66.85
2018-12-27T20:31:23.746Z,66.98
2018-12-27T20:33:51.286Z,67.09
2018-12-27T20:36:18.740Z,66.80
2018-12-27T20:38:46.189Z,66.31
2018-12-27T20:41:13.648Z,66.29
2018-12-27T20:43:41.085Z,66.65
2018-12-27T20:46:08.507Z,66.46
2018-12-27T20:48:35.982Z,66.21
2018-12-27T20:51:03.452Z,65.89
2018-12-27T20:53:31.007Z,65.87
2018-12-27T20:55:58.769Z,65.97
2018-12-27T20:58:26.214Z,65.95
2018-12-27T21:00:53.652Z,65.55
2018-12-27T21:03:21.201Z,66.79
2018-12-27T21:05:48.660Z,66.33
2018-12-27T21:08:16.234Z,65.92
2018-12-27T21:10:43.694Z,65.76
2018-12-27T21:13:11.149Z,66.41
2018-12-27T21:15:38.643Z,67.37
2018-12-27T21:18:06.082Z,66.87
2018-12-27T21:20:33.539Z,66.59
2018-12-27T21:23:01.311Z,66.58
2018-12-27T21:25:28.792Z,66.07
2018-12-27T21:27:56.306Z,66.08
2018-12-27T21:30:23.771Z,66.26
2018-12-27T21:32:51.230Z,67.12
2018-12-27T21:35:18.675Z,66.41
2018-12-27T21:37:46.146Z,66.51
2018-12-27T21:40:13.571Z,67.03
2018-12-27T21:42:41.049Z,68.21
2018-12-27T21:45:08.493Z,68.64
2018-12-27T21:47:36.148Z,69.25
2018-12-27T21:50:03.625Z,69.63
2018-12-27T21:52:31.048Z,69.21
2018-12-27T21:54:58.490Z,69.24
2018-12-27T21:57:26.037Z,70.29
2018-12-27T21:59:53.492Z,71.53
2018-12-27T22:02:22.109Z,71.21
2018-12-27T22:04:49.611Z,70.59
2018-12-27T22:07:17.067Z,70.80
2018-12-27T22:09:44.499Z,69.94
2018-12-27T22:12:11.973Z,70.16
2018-12-27T22:14:39.442Z,69.72
2018-12-27T22:17:06.869Z,69.84
2018-12-27T22:19:34.327Z,69.99
2018-12-27T22:22:01.798Z,69.00
2018-12-27T22:24:29.261Z,68.43
2018-12-27T22:26:56.695Z,67.93
2018-12-27T22:29:24.162Z,67.84
2018-12-27T22:31:51.615Z,67.75
2018-12-27T22:34:19.084Z,67.38
2018-12-27T22:36:46.519Z,67.43
2018-12-27T22:39:14.006Z,67.55
2018-12-27T22:41:41.451Z,67.83
2018-12-27T22:44:08.876Z,67.81
2018-12-27T22:46:36.320Z,67.92
2018-12-27T22:49:04.940Z,68.41
2018-12-27T22:51:32.396Z,68.47
2018-12-27T22:53:59.867Z,68.30
2018-12-27T22:56:27.322Z,67.82
2018-12-27T22:58:54.777Z,67.61
2018-12-27T23:01:22.223Z,67.89
2018-12-27T23:03:49.666Z,67.54
2018-12-27T23:06:17.155Z,67.93
2018-12-27T23:08:44.601Z,67.73
2018-12-27T23:11:12.121Z,67.57
2018-12-27T23:13:39.592Z,67.91
2018-12-27T23:16:07.088Z,69.13
2018-12-27T23:18:34.535Z,69.51
2018-12-27T23:21:02.002Z,69.73
2018-12-27T23:23:29.538Z,70.79
2018-12-27T23:25:57.667Z,70.80
2018-12-27T23:28:24.552Z,70.72
2018-12-27T23:30:52.005Z,70.62
2018-12-27T23:33:19.517Z,71.94
2018-12-27T23:35:46.966Z,73.08
2018-12-27T23:38:14.423Z,73.02
2018-12-27T23:40:41.867Z,73.06
2018-12-27T23:43:09.356Z,72.02
2018-12-27T23:45:36.817Z,72.87
2018-12-27T23:48:04.299Z,72.13
2018-12-27T23:50:31.773Z,72.37
2018-12-27T23:52:59.314Z,72.85
2018-12-27T23:55:26.776Z,73.18
2018-12-27T23:57:54.226Z,72.83
